• Join FlightAware (Why Join?)
  • Login
  • US Flag 
04:15AM EDT


 

Airport Tracker/Info


-or-


 

Live Flight TrackerFlight Track Log ✈ JBU917 ✈ 09-Apr-2013 ✈ KJFK - KORD

Flight Track Log - Related Links

Times and Time Zones

All times are in EDT time to prevent confusion due to time zone crossing. See the JBU917 flight status page for this flight to view local times or setup timezone preferences in your user account.

Time Position Orientation Groundspeed Altitude Reporting Facility
EDT Latitude Longitude Course Direction KTS MPH feet Rate Location/Type
04:17PM 40.6333 -73.8333 304° West 173 199 1,700  Level New York TRACON
04:18PM 40.5833 -73.8500 194° South 243 280 3,600 2,160 Climbing New York TRACON
04:19PM 40.7864 -74.0562 304° West  Level FlightAware Approximate
04:20PM 40.8376 -74.1585 304° West  Level FlightAware Approximate
04:20PM 40.6000 -73.7500 78° East 279 321 6,300  Level New York TRACON
04:20PM 40.6333 -73.6667 62° Northeast 291 335 8,700 2,400 Climbing New York TRACON
04:21PM 40.8902 -74.2597 306° West  Level FlightAware Approximate
04:21PM 40.7000 -73.6000 37° Northeast 305 351 10,900  Level New York TRACON
04:22PM 40.9445 -74.3593 306° West  Level FlightAware Approximate
04:22PM 40.7833 -73.5500 24° Northeast 354 407 12,700  Level New York TRACON
04:23PM 41.0022 -74.4543 304° West  Level FlightAware Approximate
04:23PM 40.8833 -73.5667 353° North 346 398 14,900  Level New York TRACON
04:24PM 40.9333 -73.6500 308° West 338 389 16,800 1,020 Climbing New York TRACON
04:25PM 41.0000 -73.7667 307° West 362 417 17,000 60 Climbing New York TRACON
04:26PM 41.0167 -73.9000 279° West 355 409 17,000  Level New York TRACON
04:29PM 41.0600 -74.1889 281° West 357 411 17,000  Level New York Center
04:30PM 41.0792 -74.3136 282° West 357 411 17,000  Level New York Center
04:31PM 41.1003 -74.4414 282° West 356 410 17,000  Level New York Center
04:32PM 41.1172 -74.5689 280° West 356 410 17,000 960 Level New York Center
04:34PM 41.1825 -74.7986 291° West 356 410 19,900 1,380 Climbing New York Center
04:35PM 41.2364 -74.9261 299° West 368 423 21,300 1,440 Climbing New York Center
04:36PM 41.2903 -75.0508 300° West 386 444 22,900 1,560 Climbing New York Center
04:37PM 41.3458 -75.1786 300° West 391 450 24,500 1,560 Climbing New York Center
04:38PM 41.3994 -75.3039 300° West 391 450 26,000 1,260 Climbing New York Center
04:39PM 41.4547 -75.4350 299° West 396 456 27,100 3,960 Climbing New York Center
04:40PM 41.5053 -75.5825 295° West 401 461 34,000 1,500 Climbing New York Center
04:41PM 41.5397 -75.7042 291° West 401 461 30,100 -1,380 Descending New York Center
04:42PM 41.5778 -75.8372 291° West 390 449 31,300 1,260 Climbing New York Center
04:43PM 41.6194 -75.9819 291° West 384 442 32,700 300 Climbing New York Center
04:44PM 41.6553 -76.1125 290° West 378 435 32,000 -360 Descending New York Center
04:45PM 41.6947 -76.2517 291° West 384 442 32,000  Level New York Center
04:46PM 41.7342 -76.3911 291° West 389 448 32,000  Level New York Center
04:47PM 41.7658 -76.5136 289° West 394 453 32,000  Level New York Center
04:48PM 41.8031 -76.6475 290° West 394 453 32,000  Level New York Center
04:49PM 41.8439 -76.7847 292° West 394 453 32,000 420 Level New York Center
04:50PM 41.8786 -76.9183 289° West 394 453 32,800 540 Climbing Cleveland Center
04:51PM 41.9142 -77.0531 290° West 394 453 33,000 60 Climbing Cleveland Center
04:52PM 41.9536 -77.1878 292° West 394 453 33,000 360 Level Cleveland Center
04:53PM 41.9867 -77.3175 289° West 382 440 33,800 480 Climbing Cleveland Center
04:54PM 42.0236 -77.4497 291° West 382 440 34,000 60 Climbing Cleveland Center
04:55PM 42.0586 -77.5850 289° West 382 440 34,000  Level Cleveland Center
04:56PM 42.0953 -77.7203 290° West 382 440 34,000  Level Cleveland Center
04:57PM 42.1300 -77.8561 289° West 382 440 34,000  Level Cleveland Center
04:58PM 42.1597 -77.9753 289° West 382 440 34,000  Level Cleveland Center
04:59PM 42.1961 -78.1111 290° West 382 440 34,000  Level Cleveland Center
05:00PM 42.2322 -78.2472 290° West 382 440 34,000  Level Cleveland Center
05:01PM 42.2642 -78.3806 288° West 382 440 34,000  Level Cleveland Center
05:02PM 42.3000 -78.5142 290° West 382 440 34,000  Level Cleveland Center
05:03PM 42.3333 -78.6394 290° West 377 434 34,000  Level Cleveland Center
05:04PM 42.3647 -78.7733 288° West 372 428 34,000  Level Cleveland Center
05:05PM 42.3981 -78.9019 289° West 367 422 34,000  Level Cleveland Center
05:06PM 42.4289 -79.0306 288° West 362 417 34,000  Level Cleveland Center
05:07PM 42.4639 -79.1647 290° West 362 417 34,000  Level Cleveland Center
05:08PM 42.4928 -79.2964 287° West 362 417 34,000  Level Cleveland Center
05:09PM 42.5003 -79.4369 274° West 372 428 34,000  Level Cleveland Center
05:10PM 42.5081 -79.5806 274° West 378 435 34,000  Level Cleveland Center
05:11PM 42.5133 -79.7214 273° West 385 443 34,000  Level Cleveland Center
05:12PM 42.5206 -79.8647 274° West 385 443 34,000  Level Cleveland Center
05:13PM 42.5233 -80.0197 271° West 385 443 34,000  Level Cleveland Center
05:14PM 42.5303 -80.1661 274° West 385 443 34,000  Level Cleveland Center
05:15PM 42.5369 -80.3097 274° West 385 443 34,000  Level Cleveland Center
05:16PM 42.5436 -80.4536 274° West 385 443 34,000  Level Cleveland Center
05:17PM 42.5519 -80.5972 275° West 386 444 34,000  Level Cleveland Center
05:18PM 42.5539 -80.7269 271° West 386 444 34,000  Level Cleveland Center
05:19PM 42.5600 -80.8708 273° West 383 441 34,000  Level Cleveland Center
05:20PM 42.5656 -81.0172 273° West 389 448 34,000  Level Cleveland Center
05:21PM 42.5714 -81.1639 273° West 381 438 34,000  Level Cleveland Center
05:22PM 42.5747 -81.3106 272° West 388 447 34,000  Level Cleveland Center
05:23PM 42.5842 -81.4544 275° West 388 447 34,000  Level Cleveland Center
05:24PM 42.6078 -81.5986 283° West 388 447 34,000  Level Cleveland Center
05:25PM 42.6336 -81.7375 284° West 388 447 34,000  Level Cleveland Center
05:26PM 42.6611 -81.8933 284° West 388 447 34,000  Level Cleveland Center
05:27PM 42.6864 -82.0378 283° West 394 453 34,000  Level Cleveland Center
05:28PM 42.7097 -82.1825 282° West 394 453 34,000  Level Cleveland Center
05:29PM 42.7347 -82.3244 284° West 394 453 34,000  Level Cleveland Center
05:30PM 42.7572 -82.4722 282° West 394 453 34,000  Level Cleveland Center
05:31PM 42.7819 -82.6144 283° West 394 453 34,000  Level Cleveland Center
05:32PM 42.8064 -82.7567 283° West 394 453 34,000  Level Cleveland Center
05:33PM 42.8308 -82.8992 283° West 394 453 34,000  Level Cleveland Center
05:34PM 42.8528 -83.0414 282° West 394 453 34,000  Level Cleveland Center
05:35PM 42.8750 -83.1728 283° West 394 453 34,000  Level Cleveland Center
05:36PM 42.8967 -83.3153 282° West 394 453 34,000 -360 Level Cleveland Center
05:37PM 42.8994 -83.4628 272° West 394 453 33,300 -900 Descending Cleveland Center
05:38PM 42.8975 -83.6158 269° West 394 453 32,300 -1,020 Descending Cleveland Center
05:39PM 42.8956 -83.7658 269° West 399 459 31,300 -1,020 Descending Cleveland Center
05:40PM 42.8956 -83.9133 270° West 399 459 30,300 -1,080 Descending Cleveland Center
05:42PM 42.8906 -84.2431 269° West 381 438 28,000 -780 Descending Chicago Center
05:43PM 42.8881 -84.3831 269° West 373 429 28,000  Level Chicago Center
05:44PM 42.8861 -84.5256 269° West 377 434 28,000  Level Chicago Center
05:45PM 42.8753 -84.6661 264° West 375 432 28,000  Level Chicago Center
05:46PM 42.8403 -84.8006 250° West 378 435 28,000  Level Chicago Center
05:47PM 42.8022 -84.9361 249° West 382 440 28,000  Level Chicago Center
05:48PM 42.7642 -85.0708 249° West 382 440 28,000  Level Chicago Center
05:49PM 42.7197 -85.2297 249° West 376 433 28,000  Level Chicago Center
05:50PM 42.6822 -85.3619 249° West 375 432 28,000  Level Chicago Center
05:51PM 42.6431 -85.4964 248° West 375 432 28,000  Level Chicago Center
05:52PM 42.6056 -85.6267 249° West 376 433 28,000 -480 Level Chicago Center
05:53PM 42.5689 -85.7558 249° West 370 426 27,100 -1,260 Descending Chicago Center
05:54PM 42.5317 -85.8803 248° West 359 413 25,400 -1,740 Descending Chicago Center
05:55PM 42.4956 -86.0003 248° West 346 398 23,600 -1,800 Descending Chicago Center
05:56PM 42.4639 -86.1203 250° West 341 392 21,800 -1,560 Descending Chicago Center
05:57PM 42.4583 -86.2631 267° West 320 368 20,400 -1,320 Descending Chicago Center
05:58PM 42.4514 -86.3819 266° West 317 365 19,200 -1,200 Descending Chicago Center
05:59PM 42.4450 -86.4981 266° West 312 359 18,000 -1,140 Descending Chicago Center
06:00PM 42.4386 -86.6150 266° West 312 359 16,900 -1,080 Descending Chicago Center
06:01PM 42.4333 -86.7306 266° West 309 356 15,800 -1,140 Descending Chicago Center
06:02PM 42.4269 -86.8447 266° West 305 351 14,600 -1,080 Descending Chicago Center
06:03PM 42.4203 -86.9589 266° West 305 351 13,600 -960 Descending Chicago Center
06:04PM 42.4114 -87.0925 265° West 298 343 12,700 -1,020 Descending Chicago Center
06:06PM 42.4042 -87.2047 265° West 300 345 11,600 -1,260 Descending Chicago Center
06:07PM 42.3967 -87.3144 265° West 295 339 10,100 -780 Descending Chicago Center
06:08PM 42.3564 -87.4150 242° Southwest 297 342 10,000  Descending Chicago Center
06:09PM 42.2994 -87.4975 227° Southwest 303 349 10,100  Climbing Chicago Center
06:10PM 42.2419 -87.5797 227° Southwest 304 350 10,000 -60 Descending Chicago Center
06:11PM 42.1864 -87.6619 228° Southwest 300 345 10,000 -900 Level Chicago Center
06:12PM 42.1264 -87.7464 226° Southwest 265 305 8,200 -1,500 Descending Chicago Center
06:13PM 42.0911 -87.8222 238° Southwest 253 291 7,000 -600 Descending Chicago Center
06:14PM 42.0911 -87.9158 270° West 254 292 7,000  Level Chicago Center
06:15PM 42.0906 -88.0089 270° West 250 288 7,000 -360 Level Chicago Center
06:16PM 42.0908 -88.0903 270° West 235 270 6,300 -1,320 Descending Chicago Center
06:17PM 42.0833 -88.1667 262° West 203 234 4,500 -1,200 Descending Chicago TRACON
06:18PM 42.0667 -88.2167 246° West 216 249 4,100 -240 Descending Chicago TRACON
06:19PM 42.0000 -88.2167 180° South 211 243 4,100 -180 Level Chicago TRACON
06:20PM 41.9667 -88.1667 132° Southeast 222 255 3,800 -600 Descending Chicago TRACON
06:21PM 41.9667 -88.0833 90° East 195 224 3,000 -900 Descending Chicago TRACON
06:22PM 41.9667 -88.0167 90° East 173 199 2,000 -900 Descending Chicago TRACON
06:23PM 41.9667 -87.9667 90° East 131 151 1,300 -720 Descending Chicago TRACON
06:25PM 41.9667 -87.9000 90° East  Level FlightAware Approximate